Terminal Aerodrome Forecast
Issued by NWS Buffalo, NY

Home | Current Version | Previous Version | Text Only | Print | Product List | Glossary On
Versions: 1 2 3 4 5 6 7 8 9 10 11 12 13 14 15 16 17 18 19 20 21 22 23 24 25 26 27 28
000
FTUS41 KBUF 202100 AAA
TAFBUF
TAF AMD
KBUF 202117Z 2021/2118 23017G30KT P6SM FEW035 SCT200
     FM210000 20010KT P6SM SCT015 BKN050
     FM210800 21013KT 6SM -SHRA SCT025 OVC035
     FM210900 20011KT 6SM -SHRA OVC025
     FM211100 21010KT 6SM -SHRA OVC015=

USA.gov is the U.S. government's official web portal to all federal, state and local government web resources and services.